Time;durP1;ratioP1;P1;durP2;ratioP2;P2;SDS_P1;SDS_P2;PMS_P1;PMS_P2;Temp;Humidity;BMP_temperature;BMP_pressure;BME280_temperature;BME280_humidity;BME280_pressure;Samples;Min_cycle;Max_cycle;Signal;HPM_P1;HPM_P2
2021/09/10 00:04:01;;;;;;;4.30;1.33;;;24.00;45.50;;;;;;21037072;27;81078;-74
2021/09/10 00:14:03;;;;;;;5.57;2.30;;;24.00;45.50;;;;;;21058027;27;81150;-75
2021/09/10 00:24:06;;;;;;;5.72;1.48;;;23.90;45.90;;;;;;21056329;27;80765;-74
2021/09/10 00:34:08;;;;;;;4.50;1.30;;;23.90;46.10;;;;;;21055540;27;79905;-71
2021/09/10 00:44:10;;;;;;;3.58;1.52;;;23.80;46.30;;;;;;21036509;27;80793;-71
2021/09/10 00:54:12;;;;;;;6.32;1.48;;;23.80;46.60;;;;;;21054045;27;80738;-71
2021/09/10 01:04:15;;;;;;;5.40;1.30;;;23.70;46.90;;;;;;21035083;27;80757;-71
2021/09/10 01:14:19;;;;;;;5.03;1.40;;;23.60;47.00;;;;;;21058750;27;80651;-73
2021/09/10 01:24:37;;;;;;;2.97;1.20;;;23.40;47.40;;;;;;21063542;27;81812;-71
2021/09/10 01:34:40;;;;;;;4.28;1.20;;;23.40;47.30;;;;;;21080111;27;80710;-73
2021/09/10 01:44:44;;;;;;;3.60;1.75;;;23.40;51.40;;;;;;21078454;27;80747;-73
2021/09/10 01:54:48;;;;;;;5.72;2.22;;;23.20;50.70;;;;;;21079701;27;81853;-74
2021/09/10 02:04:52;;;;;;;2.42;1.10;;;22.90;51.00;;;;;;21077739;27;81254;-74
2021/09/10 02:14:56;;;;;;;2.85;0.80;;;22.70;50.50;;;;;;21077805;27;80546;-71
2021/09/10 02:24:59;;;;;;;2.83;1.17;;;22.60;50.50;;;;;;21075355;27;80753;-71
2021/09/10 02:35:01;;;;;;;3.35;1.10;;;22.40;51.00;;;;;;21045029;27;80638;-74
2021/09/10 02:45:05;;;;;;;2.35;0.68;;;22.30;50.90;;;;;;21061710;27;80754;-72
2021/09/10 02:55:09;;;;;;;2.25;0.60;;;22.20;51.60;;;;;;21042985;27;80746;-73
2021/09/10 03:05:12;;;;;;;3.08;0.82;;;22.30;51.10;;;;;;21041505;27;80674;-74
2021/09/10 03:15:15;;;;;;;2.15;0.77;;;22.40;50.00;;;;;;21042432;27;80784;-72
2021/09/10 03:25:18;;;;;;;2.40;0.35;;;22.40;50.20;;;;;;21060139;27;80896;-74
2021/09/10 03:35:20;;;;;;;4.40;0.32;;;22.50;50.30;;;;;;21059033;27;80800;-74
2021/09/10 03:45:23;;;;;;;1.73;0.40;;;22.40;50.50;;;;;;21041184;27;81409;-73
2021/09/10 03:55:26;;;;;;;1.05;0.40;;;22.40;50.70;;;;;;21058009;27;80685;-72
2021/09/10 04:05:29;;;;;;;1.20;0.50;;;22.20;51.50;;;;;;21056922;27;80020;-72
2021/09/10 04:15:32;;;;;;;1.27;0.50;;;22.00;51.90;;;;;;21057375;27;80918;-76
2021/09/10 04:25:44;;;;;;;1.20;0.47;;;21.90;52.00;;;;;;21039280;27;80538;-74
2021/09/10 04:35:48;;;;;;;1.77;0.57;;;21.90;52.20;;;;;;21055736;27;80837;-70
2021/09/10 04:45:53;;;;;;;3.20;0.93;;;21.80;52.20;;;;;;21054644;27;81359;-70
2021/09/10 04:55:57;;;;;;;1.58;0.60;;;21.60;53.20;;;;;;21035429;27;80020;-71
2021/09/10 05:06:03;;;;;;;2.25;0.70;;;21.50;53.40;;;;;;21053808;27;81550;-75
2021/09/10 05:16:11;;;;;;;3.15;0.98;;;21.40;53.50;;;;;;21052439;27;81040;-72
2021/09/10 05:26:15;;;;;;;1.63;0.75;;;21.30;54.20;;;;;;21043908;27;81898;-69
2021/09/10 05:36:21;;;;;;;2.85;0.70;;;21.10;54.90;;;;;;21018412;27;81890;-71
2021/09/10 05:46:28;;;;;;;4.20;1.75;;;21.00;55.90;;;;;;21034485;27;81691;-71
2021/09/10 05:56:34;;;;;;;2.78;0.70;;;20.90;55.60;;;;;;21024875;27;81772;-71
2021/09/10 06:06:39;;;;;;;2.25;1.30;;;20.70;56.30;;;;;;21052151;27;80828;-72
2021/09/10 06:16:43;;;;;;;3.45;1.38;;;20.70;57.00;;;;;;21055841;27;80330;-71
2021/09/10 06:26:47;;;;;;;4.72;1.80;;;20.70;57.50;;;;;;21054058;27;82198;-72
2021/09/10 06:36:51;;;;;;;3.72;1.63;;;20.70;57.90;;;;;;21049446;27;81252;-72
2021/09/10 06:46:54;;;;;;;6.15;2.10;;;20.70;58.40;;;;;;21026341;27;81827;-70
2021/09/10 06:56:58;;;;;;;4.93;2.10;;;20.70;59.00;;;;;;21047992;27;83044;-71
2021/09/10 07:07:01;;;;;;;6.60;2.05;;;20.90;58.50;;;;;;21045741;27;81313;-70
2021/09/10 07:17:04;;;;;;;6.75;1.98;;;21.00;58.40;;;;;;21045030;27;81853;-69
2021/09/10 07:27:08;;;;;;;3.58;1.73;;;21.20;58.00;;;;;;21049379;27;81262;-71
2021/09/10 07:37:10;;;;;;;6.25;1.67;;;21.40;57.70;;;;;;21022499;27;82453;-70
2021/09/10 07:47:15;;;;;;;5.18;1.58;;;21.70;56.80;;;;;;21042094;27;81828;-71
2021/09/10 07:57:19;;;;;;;48.63;6.78;;;22.00;55.70;;;;;;21021899;27;82079;-69
2021/09/10 08:07:22;;;;;;;7.97;1.20;;;22.20;55.10;;;;;;21045834;27;80563;-67
2021/09/10 08:17:25;;;;;;;3.08;1.38;;;22.40;54.30;;;;;;21037987;27;80549;-69
2021/09/10 08:27:27;;;;;;;3.10;1.42;;;22.80;53.60;;;;;;21041521;27;81621;-67
2021/09/10 08:37:32;;;;;;;3.60;2.00;;;23.10;52.50;;;;;;21045303;27;81437;-67
2021/09/10 08:47:34;;;;;;;3.50;1.77;;;23.50;51.70;;;;;;21036731;27;81844;-66
2021/09/10 08:57:44;;;;;;;3.67;1.10;;;23.80;51.30;;;;;;21042077;27;80822;-67
2021/09/10 09:07:48;;;;;;;1.67;0.85;;;24.00;49.70;;;;;;21043482;27;81647;-67
2021/09/10 09:17:50;;;;;;;3.50;1.25;;;24.50;48.30;;;;;;21022996;27;81779;-67
2021/09/10 09:27:54;;;;;;;2.00;0.95;;;25.20;47.00;;;;;;21035794;27;81499;-66
2021/09/10 09:37:56;;;;;;;3.38;1.00;;;25.80;45.60;;;;;;21045060;27;80558;-67
2021/09/10 09:47:59;;;;;;;7.10;1.50;;;26.40;43.70;;;;;;21048975;27;82235;-67
2021/09/10 09:58:06;;;;;;;4.10;1.20;;;27.40;42.40;;;;;;21053419;27;81568;-67
2021/09/10 10:08:16;;;;;;;3.85;1.10;;;28.40;40.30;;;;;;21046991;27;82289;-68
2021/09/10 10:18:43;;;;;;;1.83;1.10;;;29.20;38.60;;;;;;21030803;27;82155;-67
2021/09/10 10:28:49;;;;;;;3.58;1.00;;;30.60;35.70;;;;;;21046056;27;82012;-68
2021/09/10 10:39:13;;;;;;;2.50;1.00;;;31.90;34.30;;;;;;21024857;27;81390;-69
2021/09/10 10:49:35;;;;;;;2.47;0.70;;;33.80;31.50;;;;;;21030541;27;82043;-69
2021/09/10 10:59:38;;;;;;;2.13;0.82;;;36.20;27.70;;;;;;21048555;27;81891;-69
2021/09/10 11:09:40;;;;;;;1.90;0.70;;;36.40;28.00;;;;;;21025262;27;82280;-69
2021/09/10 11:19:48;;;;;;;1.40;0.93;;;40.90;23.20;;;;;;21030239;27;80582;-69
2021/09/10 11:29:50;;;;;;;4.18;0.82;;;43.20;21.00;;;;;;21044873;27;81916;-68
2021/09/10 11:39:55;;;;;;;1.67;0.65;;;39.60;24.50;;;;;;21049742;27;81256;-67
2021/09/10 11:50:08;;;;;;;3.53;0.80;;;41.90;22.20;;;;;;21030894;27;81707;-69
2021/09/10 12:00:24;;;;;;;1.25;0.70;;;43.00;21.20;;;;;;21041417;27;82634;-70
2021/09/10 12:10:34;;;;;;;1.88;0.93;;;39.50;23.80;;;;;;21045247;27;82019;-68
2021/09/10 12:20:38;;;;;;;5.80;1.35;;;43.10;20.60;;;;;;21045014;27;81649;-68
2021/09/10 12:31:05;;;;;;;1.70;1.00;;;37.00;26.20;;;;;;21044056;27;81975;-69
2021/09/10 12:41:09;;;;;;;1.27;0.60;;;36.60;26.70;;;;;;21024544;27;81756;-68
2021/09/10 12:51:13;;;;;;;2.95;0.75;;;36.30;26.70;;;;;;21039296;27;81376;-69
2021/09/10 13:01:16;;;;;;;2.75;1.00;;;38.70;24.30;;;;;;21043190;27;80781;-70
2021/09/10 13:11:20;;;;;;;2.08;0.90;;;37.20;25.70;;;;;;21040158;27;82251;-63
2021/09/10 13:21:22;;;;;;;2.50;1.10;;;39.20;23.90;;;;;;21045475;27;81803;-61
2021/09/10 13:31:24;;;;;;;1.65;0.98;;;37.80;25.20;;;;;;21053168;27;80966;-61
2021/09/10 13:41:27;;;;;;;2.33;1.10;;;40.00;23.00;;;;;;21053530;27;80756;-62
2021/09/10 13:51:30;;;;;;;2.28;1.02;;;41.50;21.80;;;;;;21053902;27;81832;-61
2021/09/10 14:01:32;;;;;;;1.77;1.25;;;40.50;22.80;;;;;;21052090;27;80118;-61
2021/09/10 14:11:34;;;;;;;2.92;1.20;;;39.00;23.70;;;;;;21052234;27;80018;-62
2021/09/10 14:21:36;;;;;;;3.00;1.38;;;40.70;21.90;;;;;;21053638;27;80913;-62
2021/09/10 14:31:39;;;;;;;1.60;1.38;;;42.00;21.10;;;;;;21066017;27;80012;-62
2021/09/10 14:41:41;;;;;;;1.85;1.60;;;40.40;22.60;;;;;;21059441;27;80781;-62
2021/09/10 14:51:43;;;;;;;2.72;1.30;;;39.90;22.30;;;;;;21044624;27;81844;-64
2021/09/10 15:01:44;;;;;;;2.05;1.30;;;43.20;19.10;;;;;;21059350;27;81857;-65
2021/09/10 15:11:46;;;;;;;2.08;1.45;;;47.50;16.80;;;;;;21062732;27;80739;-64
2021/09/10 15:21:49;;;;;;;3.60;1.33;;;45.20;17.90;;;;;;21062389;27;80770;-63
2021/09/10 15:31:50;;;;;;;2.75;1.40;;;39.50;21.80;;;;;;21061174;27;81429;-63
2021/09/10 15:41:53;;;;;;;2.47;1.27;;;42.60;19.50;;;;;;21061555;27;80222;-63
2021/09/10 15:51:57;;;;;;;1.67;1.10;;;36.10;24.80;;;;;;21060437;27;80753;-69
2021/09/10 16:01:58;;;;;;;1.58;1.20;;;36.20;24.20;;;;;;21041497;27;80862;-68
2021/09/10 16:12:00;;;;;;;1.45;1.00;;;41.20;19.40;;;;;;21060185;27;81095;-69
2021/09/10 16:22:02;;;;;;;4.03;1.38;;;39.90;20.60;;;;;;21058508;27;80935;-69
2021/09/10 16:32:05;;;;;;;1.50;1.10;;;36.10;24.50;;;;;;21057961;27;80616;-69
2021/09/10 16:42:08;;;;;;;1.60;0.82;;;34.40;26.70;;;;;;21057767;27;80951;-69
2021/09/10 16:52:11;;;;;;;2.58;1.10;;;33.10;27.70;;;;;;21056020;27;80772;-69
2021/09/10 17:02:16;;;;;;;1.50;0.70;;;31.60;29.30;;;;;;21057105;27;80882;-69
2021/09/10 17:12:18;;;;;;;2.80;1.20;;;30.70;30.10;;;;;;21056025;27;81988;-69
2021/09/10 17:22:23;;;;;;;1.63;0.82;;;30.20;30.70;;;;;;21054951;27;80688;-70
2021/09/10 17:32:24;;;;;;;3.53;1.00;;;29.80;31.40;;;;;;21035760;27;80589;-69
2021/09/10 17:42:27;;;;;;;2.70;1.10;;;29.60;31.80;;;;;;21035746;27;80678;-68
2021/09/10 17:52:30;;;;;;;2.50;0.82;;;28.90;33.20;;;;;;21052086;27;80741;-68
2021/09/10 18:02:32;;;;;;;1.90;1.00;;;28.40;34.00;;;;;;21046925;27;80950;-69
2021/09/10 18:12:34;;;;;;;4.68;1.13;;;28.20;34.40;;;;;;21067296;27;81680;-70
2021/09/10 18:22:36;;;;;;;2.67;0.90;;;28.00;34.80;;;;;;21048374;27;81980;-69
2021/09/10 18:32:38;;;;;;;8.65;1.45;;;27.60;35.30;;;;;;21046735;27;80820;-69
2021/09/10 18:42:40;;;;;;;2.67;0.70;;;27.50;35.30;;;;;;21065923;27;81999;-69
2021/09/10 18:52:45;;;;;;;3.95;0.90;;;27.20;35.60;;;;;;21065374;27;81953;-69
2021/09/10 19:02:49;;;;;;;1.85;0.90;;;27.00;36.00;;;;;;21045784;27;80626;-70
2021/09/10 19:12:51;;;;;;;1.67;0.70;;;26.90;36.30;;;;;;21063340;27;81589;-70
2021/09/10 19:22:52;;;;;;;2.03;0.75;;;26.70;36.40;;;;;;21063135;27;80733;-69
2021/09/10 19:32:54;;;;;;;3.42;0.90;;;26.60;36.60;;;;;;21045117;27;81881;-68
2021/09/10 19:42:56;;;;;;;2.05;0.70;;;26.40;36.60;;;;;;21061724;27;82391;-69
2021/09/10 19:52:58;;;;;;;2.38;1.02;;;26.20;36.50;;;;;;21061717;27;80737;-68
2021/09/10 20:03:00;;;;;;;4.03;0.80;;;26.00;36.80;;;;;;21060106;27;81862;-69
2021/09/10 20:13:02;;;;;;;3.78;0.70;;;25.90;37.20;;;;;;21041622;27;80653;-70
2021/09/10 20:23:03;;;;;;;4.43;1.00;;;25.70;37.40;;;;;;21040312;27;80950;-70
2021/09/10 20:33:05;;;;;;;2.53;0.90;;;25.60;37.70;;;;;;21040455;27;81621;-69
2021/09/10 20:43:07;;;;;;;2.30;0.90;;;25.50;37.90;;;;;;21040010;27;80754;-70
2021/09/10 20:53:09;;;;;;;3.47;0.77;;;25.40;38.20;;;;;;21039870;27;80750;-70
2021/09/10 21:03:11;;;;;;;2.53;0.90;;;25.20;38.50;;;;;;21056691;27;81683;-69
2021/09/10 21:13:13;;;;;;;3.47;1.27;;;25.10;38.80;;;;;;21056363;27;81630;-67
2021/09/10 21:23:15;;;;;;;5.60;0.95;;;24.90;39.20;;;;;;21054780;27;82147;-79
2021/09/10 21:33:17;;;;;;;1.35;0.38;;;24.60;39.80;;;;;;21041524;27;81044;-74
2021/09/10 21:43:21;;;;;;;4.20;0.88;;;24.40;40.00;;;;;;21068876;27;81917;-71
2021/09/10 21:53:22;;;;;;;4.05;0.75;;;24.30;40.30;;;;;;21068704;27;80959;-71
2021/09/10 22:03:24;;;;;;;8.15;1.10;;;24.20;40.70;;;;;;21049626;27;81448;-73
2021/09/10 22:13:26;;;;;;;2.05;1.10;;;24.10;41.20;;;;;;21049934;27;82268;-69
2021/09/10 22:23:28;;;;;;;2.38;0.85;;;24.00;41.20;;;;;;21067036;27;82111;-72
2021/09/10 22:33:30;;;;;;;1.58;0.80;;;23.90;41.60;;;;;;21065951;27;80762;-74
2021/09/10 22:43:32;;;;;;;2.88;0.80;;;23.80;41.60;;;;;;21062878;27;81152;-71
2021/09/10 22:53:33;;;;;;;4.05;0.50;;;23.80;41.60;;;;;;21046716;27;80691;-73
2021/09/10 23:03:35;;;;;;;3.20;0.88;;;23.60;41.60;;;;;;20977049;27;80046;-73
2021/09/10 23:13:40;;;;;;;2.25;0.80;;;23.50;41.70;;;;;;20976954;27;80793;-73
2021/09/10 23:23:42;;;;;;;1.58;0.68;;;23.50;41.40;;;;;;20976303;27;80982;-73
2021/09/10 23:33:44;;;;;;;;;;;23.40;42.00;;;;;;20976968;27;81915;-73
2021/09/10 23:43:47;;;;;;;3.40;1.20;;;23.20;42.10;;;;;;20997032;27;80719;-73
2021/09/10 23:53:49;;;;;;;1.52;0.70;;;23.20;42.60;;;;;;20974248;27;80009;-74
